Time,TemperatureF,DewpointF,PressureIn,WindDirection,WindDirectionDegrees,WindSpeedMPH,WindSpeedGustMPH,Humidity,HourlyPrecipIn,Conditions,Clouds,dailyrainin,SoftwareType,DateUTC
2013-07-18 00:01:00,48.6,24.7,30.16,South,180,0.0,0.0,39,0.00,CLR,,0.00,WeatherDisplay:10.37,2013-07-18 07:01:00,
2013-07-18 00:06:00,48.2,24.4,30.17,SW,225,1.2,0.0,39,0.00,CLR,,0.00,WeatherDisplay:10.37,2013-07-18 07:06:00,
2013-07-18 00:11:00,48.0,24.8,30.16,South,180,1.2,1.2,40,0.00,CLR,,0.00,WeatherDisplay:10.37,2013-07-18 07:11:00,
2013-07-18 00:16:00,48.2,25.6,30.17,SW,225,1.2,0.0,41,0.00,CLR,,0.00,WeatherDisplay:10.37,2013-07-18 07:16:00,
2013-07-18 00:21:00,48.0,26.0,30.16,South,180,1.2,0.0,42,0.00,CLR,,0.00,WeatherDisplay:10.37,2013-07-18 07:21:00,
2013-07-18 00:26:00,47.7,25.7,30.16,South,180,0.0,0.0,42,0.00,CLR,,0.00,WeatherDisplay:10.37,2013-07-18 07:26:00,
2013-07-18 00:31:00,47.5,25.5,30.16,South,180,1.2,0.0,42,0.00,CLR,,0.00,WeatherDisplay:10.37,2013-07-18 07:31:00,
2013-07-18 00:36:00,47.5,26.1,30.16,SW,225,1.2,0.0,43,0.00,CLR,,0.00,WeatherDisplay:10.37,2013-07-18 07:36:00,
2013-07-18 00:41:00,47.3,25.9,30.16,SW,225,0.0,0.0,43,0.00,CLR,,0.00,WeatherDisplay:10.37,2013-07-18 07:41:00,
2013-07-18 00:46:00,47.1,26.3,30.16,SW,225,0.0,0.0,44,0.00,CLR,,0.00,WeatherDisplay:10.37,2013-07-18 07:46:00,
2013-07-18 00:51:00,46.9,26.1,30.16,South,180,0.0,0.0,44,0.00,CLR,,0.00,WeatherDisplay:10.37,2013-07-18 07:51:00,
2013-07-18 00:56:00,46.9,26.1,30.16,SW,225,0.0,0.0,44,0.00,CLR,,0.00,WeatherDisplay:10.37,2013-07-18 07:56:00,
2013-07-18 01:01:00,46.9,26.7,30.16,SW,225,0.0,0.0,45,0.00,CLR,,0.00,WeatherDisplay:10.37,2013-07-18 08:01:00,
2013-07-18 01:06:00,46.8,26.5,30.16,SW,225,0.0,0.0,45,0.00,CLR,,0.00,WeatherDisplay:10.37,2013-07-18 08:06:00,
2013-07-18 01:11:00,46.6,26.4,30.16,SW,225,0.0,0.0,45,0.00,CLR,,0.00,WeatherDisplay:10.37,2013-07-18 08:11:00,
2013-07-18 01:16:00,46.4,26.2,30.16,SW,225,0.0,0.0,45,0.00,CLR,,0.00,WeatherDisplay:10.37,2013-07-18 08:16:00,
2013-07-18 01:21:00,46.6,26.9,30.16,SW,225,0.0,0.0,46,0.00,CLR,,0.00,WeatherDisplay:10.37,2013-07-18 08:21:00,
2013-07-18 01:26:00,46.6,26.9,30.16,SW,225,0.0,0.0,46,0.00,CLR,,0.00,WeatherDisplay:10.37,2013-07-18 08:26:00,
2013-07-18 01:31:00,46.4,27.2,30.16,SW,225,0.0,0.0,47,0.00,CLR,,0.00,WeatherDisplay:10.37,2013-07-18 08:31:00,
2013-07-18 01:36:00,46.2,26.6,30.16,SW,225,0.0,0.0,46,0.00,CLR,,0.00,WeatherDisplay:10.37,2013-07-18 08:36:00,
2013-07-18 01:41:00,46.0,26.9,30.16,SW,225,0.0,0.0,47,0.00,CLR,,0.00,WeatherDisplay:10.37,2013-07-18 08:41:00,
2013-07-18 01:46:00,45.7,26.1,30.16,SW,225,0.0,0.0,46,0.00,CLR,,0.00,WeatherDisplay:10.37,2013-07-18 08:46:00,
2013-07-18 01:51:00,45.5,26.4,30.16,SW,225,0.0,0.0,47,0.00,CLR,,0.00,WeatherDisplay:10.37,2013-07-18 08:51:00,
2013-07-18 01:56:00,45.5,26.4,30.16,SW,225,0.0,0.0,47,0.00,CLR,,0.00,WeatherDisplay:10.37,2013-07-18 08:56:00,
2013-07-18 02:01:00,45.5,26.9,30.16,SW,225,0.0,0.0,48,0.00,CLR,,0.00,WeatherDisplay:10.37,2013-07-18 09:01:00,
2013-07-18 02:06:00,45.5,26.9,30.16,SW,225,0.0,0.0,48,0.00,CLR,,0.00,WeatherDisplay:10.37,2013-07-18 09:06:00,
2013-07-18 02:11:00,45.5,26.9,30.16,SW,225,0.0,0.0,48,0.00,CLR,,0.00,WeatherDisplay:10.37,2013-07-18 09:11:00,
2013-07-18 02:16:00,45.5,27.4,30.15,SW,225,0.0,0.0,49,0.00,CLR,,0.00,WeatherDisplay:10.37,2013-07-18 09:16:00,
2013-07-18 02:21:00,45.5,27.4,30.16,SW,225,0.0,0.0,49,0.00,CLR,,0.00,WeatherDisplay:10.37,2013-07-18 09:21:00,
2013-07-18 02:26:00,45.3,27.3,30.16,SW,225,0.0,0.0,49,0.00,CLR,,0.00,WeatherDisplay:10.37,2013-07-18 09:26:00,
2013-07-18 02:31:00,45.3,27.3,30.16,SW,225,0.0,0.0,49,0.00,CLR,,0.00,WeatherDisplay:10.37,2013-07-18 09:31:00,
2013-07-18 02:36:00,45.1,27.1,30.16,SW,225,0.0,0.0,49,0.00,CLR,,0.00,WeatherDisplay:10.37,2013-07-18 09:36:00,
2013-07-18 02:41:00,45.3,27.8,30.15,West,270,0.0,0.0,50,0.00,CLR,,0.00,WeatherDisplay:10.37,2013-07-18 09:41:00,
2013-07-18 02:46:00,45.3,27.8,30.16,NW,315,0.0,0.0,50,0.00,CLR,,0.00,WeatherDisplay:10.37,2013-07-18 09:46:00,
2013-07-18 02:51:00,45.3,27.8,30.16,NW,315,0.0,0.0,50,0.00,CLR,,0.00,WeatherDisplay:10.37,2013-07-18 09:51:00,
2013-07-18 02:56:00,45.1,27.6,30.15,South,180,0.0,0.0,50,0.00,CLR,,0.00,WeatherDisplay:10.37,2013-07-18 09:56:00,
2013-07-18 03:01:00,45.0,27.4,30.15,West,270,0.0,0.0,50,0.00,CLR,,0.00,WeatherDisplay:10.37,2013-07-18 10:01:00,
2013-07-18 03:06:00,44.8,27.3,30.15,South,180,0.0,0.0,50,0.00,CLR,,0.00,WeatherDisplay:10.37,2013-07-18 10:06:00,
2013-07-18 03:11:00,44.8,27.3,30.15,South,180,0.0,0.0,50,0.00,CLR,,0.00,WeatherDisplay:10.37,2013-07-18 10:11:00,
2013-07-18 03:16:00,44.8,27.7,30.15,West,270,0.0,0.0,51,0.00,CLR,,0.00,WeatherDisplay:10.37,2013-07-18 10:16:00,
2013-07-18 03:21:00,45.0,27.9,30.15,SW,225,0.0,0.0,51,0.00,CLR,,0.00,WeatherDisplay:10.37,2013-07-18 10:21:00,
2013-07-18 03:26:00,45.0,27.9,30.15,West,270,0.0,0.0,51,0.00,CLR,,0.00,WeatherDisplay:10.37,2013-07-18 10:26:00,
2013-07-18 03:31:00,45.0,27.9,30.15,South,180,0.0,0.0,51,0.00,CLR,,0.00,WeatherDisplay:10.37,2013-07-18 10:31:00,
2013-07-18 03:36:00,44.8,27.7,30.15,South,180,0.0,0.0,51,0.00,CLR,,0.00,WeatherDisplay:10.37,2013-07-18 10:36:00,
2013-07-18 03:41:00,44.8,28.2,30.15,West,270,0.0,0.0,52,0.00,CLR,,0.00,WeatherDisplay:10.37,2013-07-18 10:41:00,
2013-07-18 03:46:00,45.0,28.4,30.15,SW,225,0.0,0.0,52,0.00,CLR,,0.00,WeatherDisplay:10.37,2013-07-18 10:46:00,
2013-07-18 03:51:00,45.3,29.2,30.15,South,180,0.0,0.0,53,0.00,CLR,,0.00,WeatherDisplay:10.37,2013-07-18 10:51:00,
2013-07-18 03:56:00,45.3,29.2,30.14,South,180,0.0,0.0,53,0.00,CLR,,0.00,WeatherDisplay:10.37,2013-07-18 10:56:00,
2013-07-18 04:01:00,45.1,29.0,30.15,South,180,0.0,0.0,53,0.00,CLR,,0.00,WeatherDisplay:10.37,2013-07-18 11:01:00,
2013-07-18 04:06:00,45.1,29.0,30.14,South,180,0.0,0.0,53,0.00,CLR,,0.00,WeatherDisplay:10.37,2013-07-18 11:06:00,
2013-07-18 04:11:00,45.1,29.0,30.15,West,270,0.0,0.0,53,0.00,CLR,,0.00,WeatherDisplay:10.37,2013-07-18 11:11:00,
2013-07-18 04:16:00,45.3,29.2,30.14,West,270,0.0,0.0,53,0.00,CLR,,0.00,WeatherDisplay:10.37,2013-07-18 11:16:00,
2013-07-18 04:21:00,45.3,29.2,30.14,NW,315,0.0,0.0,53,0.00,CLR,,0.00,WeatherDisplay:10.37,2013-07-18 11:21:00,
2013-07-18 04:26:00,45.3,29.2,30.15,West,270,0.0,0.0,53,0.00,CLR,,0.00,WeatherDisplay:10.37,2013-07-18 11:26:00,
2013-07-18 04:31:00,45.1,29.0,30.15,West,270,0.0,0.0,53,0.00,CLR,,0.00,WeatherDisplay:10.37,2013-07-18 11:31:00,
2013-07-18 04:36:00,45.1,29.0,30.15,West,270,0.0,0.0,53,0.00,CLR,,0.00,WeatherDisplay:10.37,2013-07-18 11:36:00,
2013-07-18 04:41:00,45.1,29.0,30.15,NW,315,0.0,0.0,53,0.00,CLR,,0.00,WeatherDisplay:10.37,2013-07-18 11:41:00,
2013-07-18 04:46:00,45.1,29.0,30.15,West,270,0.0,0.0,53,0.00,CLR,,0.00,WeatherDisplay:10.37,2013-07-18 11:46:00,
2013-07-18 04:51:00,45.1,29.0,30.15,North,0,0.0,0.0,53,0.00,CLR,,0.00,WeatherDisplay:10.37,2013-07-18 11:51:00,
2013-07-18 04:56:00,45.0,28.8,30.15,NW,315,0.0,0.0,53,0.00,CLR,,0.00,WeatherDisplay:10.37,2013-07-18 11:56:00,
2013-07-18 05:01:00,45.0,28.8,30.15,West,270,0.0,0.0,53,0.00,CLR,,0.00,WeatherDisplay:10.37,2013-07-18 12:01:00,
2013-07-18 05:06:00,45.0,28.8,30.15,West,270,0.0,0.0,53,0.00,CLR,,0.00,WeatherDisplay:10.37,2013-07-18 12:06:00,
2013-07-18 05:11:00,45.0,28.8,30.15,West,270,0.0,0.0,53,0.00,CLR,,0.00,WeatherDisplay:10.37,2013-07-18 12:11:00,
2013-07-18 05:16:00,45.0,29.3,30.15,West,270,0.0,0.0,54,0.00,CLR,,0.00,WeatherDisplay:10.37,2013-07-18 12:16:00,
2013-07-18 05:21:00,45.1,29.5,30.15,West,270,0.0,0.0,54,0.00,CLR,,0.00,WeatherDisplay:10.37,2013-07-18 12:21:00,
2013-07-18 05:26:00,45.1,29.5,30.15,West,270,0.0,0.0,54,0.00,CLR,,0.00,WeatherDisplay:10.37,2013-07-18 12:26:00,
2013-07-18 05:31:00,45.1,29.5,30.15,West,270,0.0,0.0,54,0.00,CLR,,0.00,WeatherDisplay:10.37,2013-07-18 12:31:00,
2013-07-18 05:36:00,45.1,29.5,30.15,West,270,0.0,0.0,54,0.00,CLR,,0.00,WeatherDisplay:10.37,2013-07-18 12:36:00,
2013-07-18 05:41:00,45.3,30.1,30.15,West,270,0.0,0.0,55,0.00,CLR,,0.00,WeatherDisplay:10.37,2013-07-18 12:41:00,
2013-07-18 05:46:00,45.5,30.3,30.15,West,270,0.0,0.0,55,0.00,CLR,,0.00,WeatherDisplay:10.37,2013-07-18 12:46:00,
2013-07-18 05:51:00,45.5,30.3,30.15,West,270,0.0,0.0,55,0.00,CLR,,0.00,WeatherDisplay:10.37,2013-07-18 12:51:00,
2013-07-18 05:56:00,45.7,30.4,30.15,SW,225,0.0,0.0,55,0.00,CLR,,0.00,WeatherDisplay:10.37,2013-07-18 12:56:00,
2013-07-18 06:01:00,45.9,31.0,30.15,SW,225,0.0,0.0,56,0.00,CLR,,0.00,WeatherDisplay:10.37,2013-07-18 13:01:00,
2013-07-18 06:06:00,46.2,31.4,30.16,West,270,0.0,0.0,56,0.00,CLR,,0.00,WeatherDisplay:10.37,2013-07-18 13:06:00,
2013-07-18 06:11:00,46.8,32.3,30.16,West,270,0.0,0.0,57,0.00,CLR,,0.00,WeatherDisplay:10.37,2013-07-18 13:11:00,
2013-07-18 06:16:00,47.1,32.7,30.16,West,270,0.0,0.0,57,0.00,CLR,,0.00,WeatherDisplay:10.37,2013-07-18 13:16:00,
2013-07-18 06:21:00,47.5,33.0,30.16,West,270,0.0,0.0,57,0.00,CLR,,0.00,WeatherDisplay:10.37,2013-07-18 13:21:00,
2013-07-18 06:26:00,47.7,33.6,30.16,West,270,0.0,0.0,58,0.00,CLR,,0.00,WeatherDisplay:10.37,2013-07-18 13:26:00,
2013-07-18 06:31:00,48.2,34.1,30.16,West,270,0.0,0.0,58,0.00,CLR,,0.00,WeatherDisplay:10.37,2013-07-18 13:31:00,
2013-07-18 06:36:00,48.6,34.4,30.16,South,180,0.0,0.0,58,0.00,CLR,,0.00,WeatherDisplay:10.37,2013-07-18 13:36:00,
2013-07-18 06:41:00,48.9,34.8,30.16,South,180,0.0,0.0,58,0.00,CLR,,0.00,WeatherDisplay:10.37,2013-07-18 13:41:00,
2013-07-18 06:46:00,49.1,35.4,30.16,South,180,0.0,0.0,59,0.00,CLR,,0.00,WeatherDisplay:10.37,2013-07-18 13:46:00,
2013-07-18 06:51:00,49.3,35.1,30.16,South,180,0.0,0.0,58,0.00,CLR,,0.00,WeatherDisplay:10.37,2013-07-18 13:51:00,
2013-07-18 06:56:00,49.6,35.9,30.16,South,180,0.0,0.0,59,0.00,CLR,,0.00,WeatherDisplay:10.37,2013-07-18 13:56:00,
2013-07-18 07:01:00,50.0,36.2,30.16,West,270,0.0,0.0,59,0.00,CLR,,0.00,WeatherDisplay:10.37,2013-07-18 14:01:00,
2013-07-18 07:06:00,50.5,37.2,30.16,West,270,0.0,0.0,60,0.00,CLR,,0.00,WeatherDisplay:10.37,2013-07-18 14:06:00,
2013-07-18 07:11:00,51.1,37.7,30.17,West,270,0.0,0.0,60,0.00,CLR,,0.00,WeatherDisplay:10.37,2013-07-18 14:11:00,
2013-07-18 07:16:00,51.4,38.0,30.17,NE,45,0.0,0.0,60,0.00,CLR,,0.00,WeatherDisplay:10.37,2013-07-18 14:16:00,
2013-07-18 07:21:00,51.6,38.2,30.17,NW,315,0.0,0.0,60,0.00,CLR,,0.00,WeatherDisplay:10.37,2013-07-18 14:21:00,
2013-07-18 07:26:00,52.2,38.7,30.17,NW,315,0.0,0.0,60,0.00,CLR,,0.00,WeatherDisplay:10.37,2013-07-18 14:26:00,
2013-07-18 07:31:00,52.3,38.9,30.16,SE,135,0.0,0.0,60,0.00,CLR,,0.00,WeatherDisplay:10.37,2013-07-18 14:31:00,
2013-07-18 07:36:00,52.5,39.5,30.16,West,270,0.0,0.0,61,0.00,CLR,,0.00,WeatherDisplay:10.37,2013-07-18 14:36:00,
2013-07-18 07:41:00,53.1,40.0,30.16,South,180,0.0,0.0,61,0.00,CLR,,0.00,WeatherDisplay:10.37,2013-07-18 14:41:00,
2013-07-18 07:46:00,53.2,39.7,30.16,South,180,0.0,0.0,60,0.00,CLR,,0.00,WeatherDisplay:10.37,2013-07-18 14:46:00,
2013-07-18 07:51:00,53.4,39.4,30.16,South,180,0.0,0.0,59,0.00,CLR,,0.00,WeatherDisplay:10.37,2013-07-18 14:51:00,
2013-07-18 07:56:00,53.6,39.2,30.16,South,180,0.0,0.0,58,0.00,CLR,,0.00,WeatherDisplay:10.37,2013-07-18 14:56:00,
2013-07-18 08:01:00,53.8,38.4,30.16,South,180,0.0,0.0,56,0.00,CLR,,0.00,WeatherDisplay:10.37,2013-07-18 15:01:00,
2013-07-18 08:06:00,54.0,38.1,30.16,SW,225,0.0,0.0,55,0.00,CLR,,0.00,WeatherDisplay:10.37,2013-07-18 15:06:00,
2013-07-18 08:11:00,54.1,36.9,30.16,SW,225,0.0,0.0,52,0.00,CLR,,0.00,WeatherDisplay:10.37,2013-07-18 15:11:00,
2013-07-18 08:16:00,54.1,35.9,30.17,SW,225,0.0,0.0,50,0.00,CLR,,0.00,WeatherDisplay:10.37,2013-07-18 15:16:00,
2013-07-18 08:21:00,54.5,35.7,30.17,NE,45,0.0,0.0,49,0.00,CLR,,0.00,WeatherDisplay:10.37,2013-07-18 15:21:00,
2013-07-18 08:26:00,55.2,36.4,30.16,South,180,0.0,0.0,49,0.00,CLR,,0.00,WeatherDisplay:10.37,2013-07-18 15:26:00,
2013-07-18 08:31:00,56.1,35.6,30.17,South,180,0.0,0.0,46,0.00,CLR,,0.00,WeatherDisplay:10.37,2013-07-18 15:31:00,
2013-07-18 08:36:00,59.5,39.8,30.17,NW,315,0.0,0.0,48,0.00,CLR,,0.00,WeatherDisplay:10.37,2013-07-18 15:36:00,
2013-07-18 08:41:00,63.3,32.9,30.16,SW,225,0.0,0.0,32,0.00,CLR,,0.00,WeatherDisplay:10.37,2013-07-18 15:41:00,
2013-07-18 08:46:00,64.9,11.0,30.17,South,180,0.0,0.0,12,0.00,CLR,,0.00,WeatherDisplay:10.37,2013-07-18 15:46:00,
2013-07-18 08:51:00,67.5,13.0,30.17,SW,225,0.0,0.0,12,0.00,CLR,,0.00,WeatherDisplay:10.37,2013-07-18 15:51:00,
2013-07-18 08:56:00,67.1,12.7,30.16,South,180,0.0,0.0,12,0.00,CLR,,0.00,WeatherDisplay:10.37,2013-07-18 15:56:00,
2013-07-18 09:01:00,68.0,13.4,30.16,SW,225,0.0,0.0,12,0.00,CLR,,0.00,WeatherDisplay:10.37,2013-07-18 16:01:00,
2013-07-18 09:06:00,69.4,14.6,30.16,SW,225,0.0,0.0,12,0.00,CLR,,0.00,WeatherDisplay:10.37,2013-07-18 16:06:00,
2013-07-18 09:11:00,70.2,15.1,30.16,East,90,0.0,0.0,12,0.00,CLR,,0.00,WeatherDisplay:10.37,2013-07-18 16:11:00,
2013-07-18 09:16:00,70.7,15.5,30.16,West,270,0.0,0.0,12,0.00,CLR,,0.00,WeatherDisplay:10.37,2013-07-18 16:16:00,
2013-07-18 09:21:00,71.8,16.4,30.16,NE,45,0.0,0.0,12,0.00,CLR,,0.00,WeatherDisplay:10.37,2013-07-18 16:21:00,
2013-07-18 09:26:00,71.8,16.4,30.15,NW,315,3.5,3.5,12,0.00,CLR,,0.00,WeatherDisplay:10.37,2013-07-18 16:26:00,
2013-07-18 09:31:00,71.4,16.1,30.15,West,270,2.3,0.0,12,0.00,CLR,,0.00,WeatherDisplay:10.37,2013-07-18 16:31:00,
2013-07-18 09:36:00,72.7,17.1,30.15,North,0,3.5,3.5,12,0.00,CLR,,0.00,WeatherDisplay:10.37,2013-07-18 16:36:00,
2013-07-18 09:41:00,73.6,17.8,30.15,NE,45,3.5,3.5,12,0.00,CLR,,0.00,WeatherDisplay:10.37,2013-07-18 16:41:00,
2013-07-18 09:46:00,73.6,17.8,30.15,North,0,3.5,3.5,12,0.00,CLR,,0.00,WeatherDisplay:10.37,2013-07-18 16:46:00,
2013-07-18 09:51:00,74.3,18.4,30.14,North,0,3.5,3.5,12,0.00,CLR,,0.00,WeatherDisplay:10.37,2013-07-18 16:51:00,
2013-07-18 09:56:00,75.0,18.9,30.14,North,0,4.6,4.6,12,0.00,CLR,,0.00,WeatherDisplay:10.37,2013-07-18 16:56:00,
2013-07-18 10:01:00,75.7,75.7,30.14,SE,135,3.5,3.5,100,0.00,CLR,,0.00,WeatherDisplay:10.37,2013-07-18 17:01:00,
2013-07-18 10:06:00,76.3,76.3,30.14,SE,135,3.5,0.0,100,0.00,CLR,,0.00,WeatherDisplay:10.37,2013-07-18 17:06:00,
2013-07-18 10:11:00,76.6,76.6,30.14,WNW,292,3.5,3.5,100,0.00,CLR,,0.00,WeatherDisplay:10.37,2013-07-18 17:11:00,
2013-07-18 10:16:00,75.6,75.6,30.14,South,180,3.5,3.5,100,0.00,CLR,,0.00,WeatherDisplay:10.37,2013-07-18 17:16:00,
2013-07-18 10:21:00,75.4,75.4,30.14,West,270,6.9,6.9,100,0.00,CLR,,0.00,WeatherDisplay:10.37,2013-07-18 17:21:00,
2013-07-18 10:26:00,75.0,75.0,30.14,NW,315,6.9,6.9,100,0.00,CLR,,0.00,WeatherDisplay:10.37,2013-07-18 17:26:00,
2013-07-18 10:31:00,74.1,74.1,30.13,NW,315,5.8,5.8,100,0.00,CLR,,0.00,WeatherDisplay:10.37,2013-07-18 17:31:00,
2013-07-18 10:36:00,75.7,75.7,30.13,West,270,6.0,6.0,100,0.00,CLR,,0.00,WeatherDisplay:10.37,2013-07-18 17:36:00,
2013-07-18 10:41:00,75.7,75.7,30.14,NW,315,4.6,5.4,100,0.00,CLR,,0.00,WeatherDisplay:10.37,2013-07-18 17:41:00,
2013-07-18 10:46:00,75.0,75.0,30.13,West,270,5.8,5.8,100,0.00,CLR,,0.00,WeatherDisplay:10.37,2013-07-18 17:46:00,
2013-07-18 10:51:00,74.3,74.3,30.13,North,0,5.8,5.8,100,0.00,CLR,,0.00,WeatherDisplay:10.37,2013-07-18 17:51:00,
2013-07-18 10:56:00,75.4,75.4,30.13,West,270,4.6,4.6,100,0.00,CLR,,0.00,WeatherDisplay:10.37,2013-07-18 17:56:00,
2013-07-18 11:01:00,74.5,74.5,30.13,West,270,6.9,6.9,100,0.00,CLR,,0.00,WeatherDisplay:10.37,2013-07-18 18:01:00,
2013-07-18 11:06:00,75.9,75.9,30.13,WNW,292,4.6,4.6,100,0.00,CLR,,0.00,WeatherDisplay:10.37,2013-07-18 18:06:00,
2013-07-18 11:11:00,76.8,76.8,30.13,North,0,3.5,3.5,100,0.00,CLR,,0.00,WeatherDisplay:10.37,2013-07-18 18:11:00,
2013-07-18 11:16:00,76.5,76.5,30.13,WNW,292,8.1,8.1,100,0.00,CLR,,0.00,WeatherDisplay:10.37,2013-07-18 18:16:00,
2013-07-18 11:21:00,75.9,75.9,30.13,West,270,8.1,8.1,100,0.00,CLR,,0.00,WeatherDisplay:10.37,2013-07-18 18:21:00,
2013-07-18 11:26:00,76.1,76.1,30.13,East,90,5.8,5.8,100,0.00,CLR,,0.00,WeatherDisplay:10.37,2013-07-18 18:26:00,
2013-07-18 11:31:00,75.6,75.6,30.13,SW,225,5.8,5.8,100,0.00,CLR,,0.00,WeatherDisplay:10.37,2013-07-18 18:31:00,
2013-07-18 11:36:00,75.6,75.6,30.13,SW,225,5.8,5.8,100,0.00,CLR,,0.00,WeatherDisplay:10.37,2013-07-18 18:36:00,
2013-07-18 11:41:00,76.1,76.1,30.13,West,270,8.1,8.1,100,0.00,CLR,,0.00,WeatherDisplay:10.37,2013-07-18 18:41:00,
2013-07-18 11:46:00,75.6,75.6,30.12,SE,135,5.8,5.8,100,0.00,CLR,,0.00,WeatherDisplay:10.37,2013-07-18 18:46:00,
2013-07-18 11:51:00,75.6,75.6,30.12,North,0,8.1,8.1,100,0.00,CLR,,0.00,WeatherDisplay:10.37,2013-07-18 18:51:00,
2013-07-18 11:56:00,75.7,75.7,30.12,NW,315,5.8,5.8,100,0.00,CLR,,0.00,WeatherDisplay:10.37,2013-07-18 18:56:00,
2013-07-18 12:01:00,75.0,75.0,30.12,NE,45,8.1,8.1,100,0.00,CLR,,0.00,WeatherDisplay:10.37,2013-07-18 19:01:00,
2013-07-18 12:06:00,74.1,74.1,30.12,East,90,11.5,11.5,100,0.00,CLR,,0.00,WeatherDisplay:10.37,2013-07-18 19:06:00,
2013-07-18 12:11:00,74.5,74.5,30.12,East,90,9.2,9.2,100,0.00,CLR,,0.00,WeatherDisplay:10.37,2013-07-18 19:11:00,
2013-07-18 12:16:00,74.5,74.5,30.12,NE,45,8.1,8.1,100,0.00,CLR,,0.00,WeatherDisplay:10.37,2013-07-18 19:16:00,
2013-07-18 12:21:00,74.3,74.3,30.12,North,0,8.1,8.1,100,0.00,CLR,,0.00,WeatherDisplay:10.37,2013-07-18 19:21:00,
2013-07-18 12:26:00,74.7,74.7,30.12,North,0,3.5,3.5,100,0.00,CLR,,0.00,WeatherDisplay:10.37,2013-07-18 19:26:00,
2013-07-18 12:31:00,73.9,73.9,30.12,North,0,12.7,12.7,100,0.00,CLR,,0.00,WeatherDisplay:10.37,2013-07-18 19:31:00,
2013-07-18 12:36:00,73.4,73.4,30.13,SE,135,8.1,8.1,100,0.00,CLR,,0.00,WeatherDisplay:10.37,2013-07-18 19:36:00,
2013-07-18 12:41:00,73.4,73.4,30.12,NW,315,12.7,12.7,100,0.00,CLR,,0.00,WeatherDisplay:10.37,2013-07-18 19:41:00,
2013-07-18 12:46:00,72.9,72.9,30.12,NW,315,10.4,10.4,100,0.00,CLR,,0.00,WeatherDisplay:10.37,2013-07-18 19:46:00,
2013-07-18 12:51:00,72.1,72.1,30.12,NW,315,11.5,11.5,100,0.00,CLR,,0.00,WeatherDisplay:10.37,2013-07-18 19:51:00,
2013-07-18 12:56:00,72.5,72.5,30.12,West,270,5.8,5.8,100,0.00,CLR,,0.00,WeatherDisplay:10.37,2013-07-18 19:56:00,
2013-07-18 13:01:00,72.7,72.7,30.12,West,270,5.8,5.8,100,0.00,CLR,,0.00,WeatherDisplay:10.37,2013-07-18 20:01:00,
2013-07-18 13:06:00,73.0,73.0,30.12,North,0,9.2,9.2,100,0.00,CLR,,0.00,WeatherDisplay:10.37,2013-07-18 20:06:00,
2013-07-18 13:11:00,72.7,72.7,30.12,South,180,11.4,11.4,100,0.00,CLR,,0.00,WeatherDisplay:10.37,2013-07-18 20:11:00,
2013-07-18 13:16:00,72.9,72.9,30.12,NW,315,5.8,6.0,100,0.00,CLR,,0.00,WeatherDisplay:10.37,2013-07-18 20:16:00,
2013-07-18 13:21:00,72.7,72.7,30.11,NW,315,4.6,4.6,100,0.00,CLR,,0.00,WeatherDisplay:10.37,2013-07-18 20:21:00,
2013-07-18 13:26:00,73.0,73.0,30.12,NW,315,10.4,10.4,100,0.00,CLR,,0.00,WeatherDisplay:10.37,2013-07-18 20:26:00,
2013-07-18 13:31:00,73.0,73.0,30.12,East,90,8.1,8.1,100,0.00,CLR,,0.00,WeatherDisplay:10.37,2013-07-18 20:31:00,
2013-07-18 13:36:00,72.7,72.7,30.11,NW,315,8.1,8.1,100,0.00,CLR,,0.00,WeatherDisplay:10.37,2013-07-18 20:36:00,
2013-07-18 13:41:00,71.8,71.8,30.11,NW,315,11.5,11.5,100,0.00,CLR,,0.00,WeatherDisplay:10.37,2013-07-18 20:41:00,
2013-07-18 13:46:00,71.8,71.8,30.12,WSW,248,5.8,5.8,100,0.00,CLR,,0.00,WeatherDisplay:10.37,2013-07-18 20:46:00,
2013-07-18 13:51:00,71.8,71.8,30.12,WNW,292,15.0,15.0,100,0.00,CLR,,0.00,WeatherDisplay:10.37,2013-07-18 20:51:00,
2013-07-18 13:56:00,72.1,72.1,30.11,NE,45,12.7,12.7,100,0.00,CLR,,0.00,WeatherDisplay:10.37,2013-07-18 20:56:00,
2013-07-18 14:01:00,73.6,73.6,30.12,NE,45,6.9,6.9,100,0.00,CLR,,0.00,WeatherDisplay:10.37,2013-07-18 21:01:00,
2013-07-18 14:06:00,73.8,73.8,30.12,South,180,8.1,8.1,100,0.00,CLR,,0.00,WeatherDisplay:10.37,2013-07-18 21:06:00,
2013-07-18 14:11:00,74.8,74.8,30.12,NE,45,8.1,8.1,100,0.00,CLR,,0.00,WeatherDisplay:10.37,2013-07-18 21:11:00,
2013-07-18 14:16:00,75.0,75.0,30.12,NW,315,8.1,8.1,100,0.00,CLR,,0.00,WeatherDisplay:10.37,2013-07-18 21:16:00,
2013-07-18 14:21:00,74.1,74.1,30.12,NW,315,8.1,8.1,100,0.00,CLR,,0.00,WeatherDisplay:10.37,2013-07-18 21:21:00,
2013-07-18 14:26:00,74.1,74.1,30.11,East,90,5.8,5.8,100,0.00,CLR,,0.00,WeatherDisplay:10.37,2013-07-18 21:26:00,
2013-07-18 14:31:00,74.5,74.5,30.11,NE,45,5.8,5.8,100,0.00,CLR,,0.00,WeatherDisplay:10.37,2013-07-18 21:31:00,
2013-07-18 14:36:00,74.7,74.7,30.11,NE,45,5.8,5.8,100,0.00,CLR,,0.00,WeatherDisplay:10.37,2013-07-18 21:36:00,
2013-07-18 14:41:00,74.7,74.7,30.11,East,90,8.1,8.1,100,0.00,CLR,,0.00,WeatherDisplay:10.37,2013-07-18 21:41:00,
2013-07-18 14:46:00,74.3,74.3,30.11,NE,45,11.5,11.5,100,0.00,CLR,,0.00,WeatherDisplay:10.37,2013-07-18 21:46:00,
2013-07-18 14:51:00,73.6,73.6,30.11,NW,315,15.0,15.0,100,0.00,CLR,,0.00,WeatherDisplay:10.37,2013-07-18 21:51:00,
2013-07-18 14:56:00,73.9,73.9,30.11,North,0,8.1,8.1,100,0.00,CLR,,0.00,WeatherDisplay:10.37,2013-07-18 21:56:00,
2013-07-18 15:01:00,73.0,73.0,30.11,NE,45,12.7,12.7,100,0.00,CLR,,0.00,WeatherDisplay:10.37,2013-07-18 22:01:00,
2013-07-18 15:06:00,73.4,73.4,30.11,West,270,15.0,15.0,100,0.00,CLR,,0.00,WeatherDisplay:10.37,2013-07-18 22:06:00,
2013-07-18 15:12:00,73.2,73.2,30.11,East,90,9.2,9.2,100,0.00,CLR,,0.00,WeatherDisplay:10.37,2013-07-18 22:12:00,
2013-07-18 15:17:00,73.4,73.4,30.11,NE,45,8.1,8.1,100,0.00,CLR,,0.00,WeatherDisplay:10.37,2013-07-18 22:17:00,
2013-07-18 15:22:00,73.8,73.8,30.11,South,180,8.1,8.1,100,0.00,CLR,,0.00,WeatherDisplay:10.37,2013-07-18 22:22:00,
2013-07-18 15:27:00,73.9,73.9,30.11,SW,225,8.1,8.1,100,0.00,CLR,,0.00,WeatherDisplay:10.37,2013-07-18 22:27:00,
2013-07-18 15:32:00,73.6,73.6,30.11,North,0,10.7,10.7,100,0.00,CLR,,0.00,WeatherDisplay:10.37,2013-07-18 22:32:00,
2013-07-18 15:37:00,73.4,73.4,30.11,SW,225,13.8,13.8,100,0.00,CLR,,0.00,WeatherDisplay:10.37,2013-07-18 22:37:00,
2013-07-18 15:42:00,73.2,73.2,30.11,NE,45,5.8,5.8,100,0.00,CLR,,0.00,WeatherDisplay:10.37,2013-07-18 22:42:00,
2013-07-18 15:47:00,73.2,73.2,30.11,West,270,15.0,15.0,100,0.00,CLR,,0.00,WeatherDisplay:10.37,2013-07-18 22:47:00,
2013-07-18 15:52:00,72.9,72.9,30.11,NW,315,10.4,10.4,100,0.00,CLR,,0.00,WeatherDisplay:10.37,2013-07-18 22:52:00,
2013-07-18 15:57:00,72.5,72.5,30.11,NW,315,11.5,11.5,100,0.00,CLR,,0.00,WeatherDisplay:10.37,2013-07-18 22:57:00,
2013-07-18 16:02:00,72.1,72.1,30.11,East,90,8.1,8.1,100,0.00,CLR,,0.00,WeatherDisplay:10.37,2013-07-18 23:02:00,
2013-07-18 16:07:00,73.0,73.0,30.10,North,0,5.8,5.8,100,0.00,CLR,,0.00,WeatherDisplay:10.37,2013-07-18 23:07:00,
2013-07-18 16:12:00,73.6,73.6,30.10,NW,315,8.1,8.1,100,0.00,CLR,,0.00,WeatherDisplay:10.37,2013-07-18 23:12:00,
2013-07-18 16:17:00,73.4,73.4,30.10,West,270,4.6,4.6,100,0.00,CLR,,0.00,WeatherDisplay:10.37,2013-07-18 23:17:00,
2013-07-18 16:22:00,73.2,73.2,30.10,North,0,3.5,3.5,100,0.00,CLR,,0.00,WeatherDisplay:10.37,2013-07-18 23:22:00,
2013-07-18 16:27:00,73.9,73.9,30.10,West,270,8.3,8.3,100,0.00,CLR,,0.00,WeatherDisplay:10.37,2013-07-18 23:27:00,
2013-07-18 16:32:00,72.9,72.9,30.10,North,0,8.1,8.1,100,0.00,CLR,,0.00,WeatherDisplay:10.37,2013-07-18 23:32:00,
2013-07-18 16:37:00,72.5,72.5,30.09,SE,135,3.5,3.8,100,0.00,CLR,,0.00,WeatherDisplay:10.37,2013-07-18 23:37:00,
2013-07-18 16:42:00,72.9,72.9,30.10,NW,315,6.9,6.9,100,0.00,CLR,,0.00,WeatherDisplay:10.37,2013-07-18 23:42:00,
2013-07-18 16:47:00,73.4,73.4,30.10,North,0,4.6,4.6,100,0.00,CLR,,0.00,WeatherDisplay:10.37,2013-07-18 23:47:00,
2013-07-18 16:52:00,73.8,73.8,30.10,SW,225,5.8,5.8,100,0.00,CLR,,0.00,WeatherDisplay:10.37,2013-07-18 23:52:00,
2013-07-18 16:57:00,73.0,73.0,30.10,NE,45,11.5,11.5,100,0.00,CLR,,0.00,WeatherDisplay:10.37,2013-07-18 23:57:00,
2013-07-18 17:02:00,71.8,71.8,30.10,SSW,202,11.5,11.5,100,0.00,CLR,,0.00,WeatherDisplay:10.37,2013-07-19 00:02:00,
2013-07-18 17:07:00,72.0,72.0,30.10,NE,45,12.7,12.7,100,0.00,CLR,,0.00,WeatherDisplay:10.37,2013-07-19 00:07:00,
2013-07-18 17:12:00,71.4,71.4,30.10,NE,45,17.3,17.3,100,0.00,CLR,,0.00,WeatherDisplay:10.37,2013-07-19 00:12:00,
2013-07-18 17:17:00,71.1,71.1,30.10,East,90,13.8,13.8,100,0.00,CLR,,0.00,WeatherDisplay:10.37,2013-07-19 00:17:00,
2013-07-18 17:22:00,71.1,71.1,30.10,North,0,13.8,13.8,100,0.00,CLR,,0.00,WeatherDisplay:10.37,2013-07-19 00:22:00,
2013-07-18 17:27:00,71.1,71.1,30.10,North,0,10.4,10.4,100,0.00,CLR,,0.00,WeatherDisplay:10.37,2013-07-19 00:27:00,
2013-07-18 17:32:00,71.6,71.6,30.10,SSE,158,8.1,8.1,100,0.00,CLR,,0.00,WeatherDisplay:10.37,2013-07-19 00:32:00,
2013-07-18 17:37:00,71.8,71.8,30.10,NE,45,10.4,10.4,100,0.00,CLR,,0.00,WeatherDisplay:10.37,2013-07-19 00:37:00,
2013-07-18 17:42:00,71.6,71.6,30.10,East,90,10.4,10.4,100,0.00,CLR,,0.00,WeatherDisplay:10.37,2013-07-19 00:42:00,
2013-07-18 17:47:00,70.9,70.9,30.10,West,270,8.1,8.1,100,0.00,CLR,,0.00,WeatherDisplay:10.37,2013-07-19 00:47:00,
2013-07-18 17:52:00,70.5,70.5,30.10,SE,135,5.8,5.8,100,0.00,CLR,,0.00,WeatherDisplay:10.37,2013-07-19 00:52:00,
2013-07-18 17:57:00,71.1,71.1,30.10,South,180,5.8,5.8,100,0.00,CLR,,0.00,WeatherDisplay:10.37,2013-07-19 00:57:00,
2013-07-18 18:02:00,71.1,71.1,30.11,West,270,12.7,12.7,100,0.00,CLR,,0.00,WeatherDisplay:10.37,2013-07-19 01:02:00,
2013-07-18 18:07:00,70.3,70.3,30.10,North,0,10.4,10.4,100,0.00,CLR,,0.00,WeatherDisplay:10.37,2013-07-19 01:07:00,
2013-07-18 18:12:00,69.6,69.6,30.10,West,270,5.8,5.8,100,0.00,CLR,,0.00,WeatherDisplay:10.37,2013-07-19 01:12:00,
2013-07-18 18:17:00,70.2,70.2,30.11,North,0,6.9,6.9,100,0.00,CLR,,0.00,WeatherDisplay:10.37,2013-07-19 01:17:00,
2013-07-18 18:22:00,70.7,70.7,30.10,SW,225,8.1,8.1,100,0.00,CLR,,0.00,WeatherDisplay:10.37,2013-07-19 01:22:00,
2013-07-18 18:27:00,70.3,70.3,30.10,SE,135,5.8,5.8,100,0.00,CLR,,0.00,WeatherDisplay:10.37,2013-07-19 01:27:00,
2013-07-18 18:32:00,69.4,69.4,30.11,NW,315,15.0,15.0,100,0.00,CLR,,0.00,WeatherDisplay:10.37,2013-07-19 01:32:00,
2013-07-18 18:37:00,69.8,69.8,30.10,NW,315,5.8,5.8,100,0.00,CLR,,0.00,WeatherDisplay:10.37,2013-07-19 01:37:00,
2013-07-18 18:42:00,70.5,70.5,30.11,NE,45,5.8,5.8,100,0.00,CLR,,0.00,WeatherDisplay:10.37,2013-07-19 01:42:00,
2013-07-18 18:47:00,70.7,70.7,30.11,NE,45,9.2,9.2,100,0.00,CLR,,0.00,WeatherDisplay:10.37,2013-07-19 01:47:00,
2013-07-18 18:52:00,70.5,70.5,30.11,NW,315,13.7,13.7,100,0.00,CLR,,0.00,WeatherDisplay:10.37,2013-07-19 01:52:00,
2013-07-18 18:57:00,69.4,69.4,30.10,North,0,10.4,10.4,100,0.00,CLR,,0.00,WeatherDisplay:10.37,2013-07-19 01:57:00,
2013-07-18 19:02:00,68.7,68.7,30.11,SSW,202,6.9,0.0,100,0.00,CLR,,0.00,WeatherDisplay:10.37,2013-07-19 02:02:00,
2013-07-18 19:07:00,69.1,69.1,30.11,East,90,8.1,8.1,100,0.00,CLR,,0.00,WeatherDisplay:10.37,2013-07-19 02:07:00,
2013-07-18 19:12:00,68.7,68.7,30.11,NW,315,11.5,11.5,100,0.00,CLR,,0.00,WeatherDisplay:10.37,2013-07-19 02:12:00,
2013-07-18 19:17:00,68.5,68.5,30.11,NE,45,9.2,9.2,100,0.00,CLR,,0.00,WeatherDisplay:10.37,2013-07-19 02:17:00,
2013-07-18 19:22:00,68.5,68.5,30.11,East,90,4.6,4.6,100,0.00,CLR,,0.00,WeatherDisplay:10.37,2013-07-19 02:22:00,
2013-07-18 19:27:00,68.4,68.4,30.11,WSW,248,5.8,5.8,100,0.00,CLR,,0.00,WeatherDisplay:10.37,2013-07-19 02:27:00,
2013-07-18 19:32:00,68.2,68.2,30.11,NW,315,6.9,6.9,100,0.00,CLR,,0.00,WeatherDisplay:10.37,2013-07-19 02:32:00,
2013-07-18 19:37:00,67.3,67.3,30.11,West,270,9.2,9.2,100,0.00,CLR,,0.00,WeatherDisplay:10.37,2013-07-19 02:37:00,
2013-07-18 19:42:00,66.2,66.2,30.11,SE,135,5.8,5.8,100,0.00,CLR,,0.00,WeatherDisplay:10.37,2013-07-19 02:42:00,
2013-07-18 19:47:00,65.3,65.3,30.11,NE,45,10.4,10.4,100,0.00,CLR,,0.00,WeatherDisplay:10.37,2013-07-19 02:47:00,
2013-07-18 19:52:00,64.6,64.6,30.11,NE,45,4.6,0.0,100,0.00,CLR,,0.00,WeatherDisplay:10.37,2013-07-19 02:52:00,
2013-07-18 19:57:00,63.9,63.9,30.12,NE,45,10.4,10.4,100,0.00,CLR,,0.00,WeatherDisplay:10.37,2013-07-19 02:57:00,
2013-07-18 20:02:00,63.0,63.0,30.12,West,270,11.5,11.5,100,0.00,CLR,,0.00,WeatherDisplay:10.37,2013-07-19 03:02:00,
2013-07-18 20:07:00,62.8,62.8,30.12,East,90,8.1,8.1,100,0.00,CLR,,0.00,WeatherDisplay:10.37,2013-07-19 03:07:00,
2013-07-18 20:12:00,62.1,62.1,30.12,North,0,11.5,11.5,100,0.00,CLR,,0.00,WeatherDisplay:10.37,2013-07-19 03:12:00,
2013-07-18 20:17:00,61.9,61.9,30.12,NW,315,3.5,3.5,100,0.00,CLR,,0.00,WeatherDisplay:10.37,2013-07-19 03:17:00,
2013-07-18 20:22:00,61.5,61.5,30.12,South,180,5.8,0.0,100,0.00,CLR,,0.00,WeatherDisplay:10.37,2013-07-19 03:22:00,
2013-07-18 20:27:00,60.6,60.6,30.12,NW,315,5.8,5.8,100,0.00,CLR,,0.00,WeatherDisplay:10.37,2013-07-19 03:27:00,
2013-07-18 20:32:00,59.9,59.9,30.12,North,0,12.7,12.7,100,0.00,CLR,,0.00,WeatherDisplay:10.37,2013-07-19 03:32:00,
2013-07-18 20:37:00,59.4,59.4,30.13,South,180,4.6,0.0,100,0.00,CLR,,0.00,WeatherDisplay:10.37,2013-07-19 03:37:00,
2013-07-18 20:42:00,59.0,59.0,30.12,NW,315,3.8,3.8,100,0.00,CLR,,0.00,WeatherDisplay:10.37,2013-07-19 03:42:00,
2013-07-18 20:47:00,58.6,58.6,30.13,SE,135,4.6,0.0,100,0.00,CLR,,0.00,WeatherDisplay:10.37,2013-07-19 03:47:00,
2013-07-18 20:52:00,58.3,58.3,30.12,South,180,2.3,2.3,100,0.00,CLR,,0.00,WeatherDisplay:10.37,2013-07-19 03:52:00,
2013-07-18 20:58:00,57.9,57.9,30.13,West,270,4.6,4.6,100,0.00,CLR,,0.00,WeatherDisplay:10.37,2013-07-19 03:58:00,
2013-07-18 21:01:00,57.7,57.7,30.13,SW,225,5.8,0.0,100,0.00,CLR,,0.00,WeatherDisplay:10.37,2013-07-19 04:01:00,
2013-07-18 21:02:00,57.7,57.7,30.12,NW,315,3.5,3.5,100,0.00,CLR,,0.00,WeatherDisplay:10.37,2013-07-19 04:02:00,
2013-07-18 21:03:00,57.6,57.6,30.13,West,270,5.8,5.8,100,0.00,CLR,,0.00,WeatherDisplay:10.37,2013-07-19 04:03:00,
2013-07-18 21:05:00,57.6,57.6,30.13,North,0,3.5,0.0,100,0.00,CLR,,0.00,WeatherDisplay:10.37,2013-07-19 04:05:00,
2013-07-18 21:06:00,57.4,57.4,30.13,North,0,3.5,3.8,100,0.00,CLR,,0.00,WeatherDisplay:10.37,2013-07-19 04:06:00,
2013-07-18 21:11:00,57.4,57.4,30.13,SW,225,5.8,5.8,100,0.00,CLR,,0.00,WeatherDisplay:10.37,2013-07-19 04:11:00,
2013-07-18 21:16:00,57.2,57.2,30.13,West,270,6.9,6.9,100,0.00,CLR,,0.00,WeatherDisplay:10.37,2013-07-19 04:16:00,
2013-07-18 21:21:00,57.0,57.0,30.13,East,90,2.3,2.3,100,0.00,CLR,,0.00,WeatherDisplay:10.37,2013-07-19 04:21:00,
2013-07-18 21:26:00,56.8,56.8,30.13,SE,135,2.3,0.0,100,0.00,CLR,,0.00,WeatherDisplay:10.37,2013-07-19 04:26:00,
2013-07-18 21:31:00,56.7,0.6,30.13,West,270,3.5,3.5,10,0.00,CLR,,0.00,WeatherDisplay:10.37,2013-07-19 04:31:00,
2013-07-18 21:36:00,56.5,4.4,30.14,North,0,6.9,6.9,12,0.00,CLR,,0.00,WeatherDisplay:10.37,2013-07-19 04:36:00,
2013-07-18 21:41:00,56.3,6.0,30.14,NE,45,4.6,4.6,13,0.00,CLR,,0.00,WeatherDisplay:10.37,2013-07-19 04:41:00,
2013-07-18 21:46:00,56.3,7.6,30.14,North,0,5.8,5.8,14,0.00,CLR,,0.00,WeatherDisplay:10.37,2013-07-19 04:46:00,
2013-07-18 21:51:00,56.1,9.0,30.14,NW,315,3.5,3.5,15,0.00,CLR,,0.00,WeatherDisplay:10.37,2013-07-19 04:51:00,
2013-07-18 21:56:00,55.9,10.3,30.14,West,270,4.5,4.5,16,0.00,CLR,,0.00,WeatherDisplay:10.37,2013-07-19 04:56:00,
2013-07-18 22:01:00,55.9,13.0,30.14,NE,45,6.9,6.9,18,0.00,CLR,,0.00,WeatherDisplay:10.37,2013-07-19 05:01:00,
2013-07-18 22:06:00,55.9,14.2,30.14,East,90,3.8,3.8,19,0.00,CLR,,0.00,WeatherDisplay:10.37,2013-07-19 05:06:00,
2013-07-18 22:11:00,55.9,15.4,30.14,NW,315,6.9,6.9,20,0.00,CLR,,0.00,WeatherDisplay:10.37,2013-07-19 05:11:00,
2013-07-18 22:16:00,55.9,15.4,30.14,North,0,4.6,4.6,20,0.00,CLR,,0.00,WeatherDisplay:10.37,2013-07-19 05:16:00,
2013-07-18 22:21:00,55.8,16.4,30.13,West,270,4.6,4.6,21,0.00,CLR,,0.00,WeatherDisplay:10.37,2013-07-19 05:21:00,
2013-07-18 22:26:00,55.8,17.4,30.13,NW,315,3.5,0.0,22,0.00,CLR,,0.00,WeatherDisplay:10.37,2013-07-19 05:26:00,
2013-07-18 22:31:00,55.8,17.4,30.14,North,0,2.3,0.0,22,0.00,CLR,,0.00,WeatherDisplay:10.37,2013-07-19 05:31:00,
2013-07-18 22:36:00,55.6,18.3,30.13,East,90,2.3,0.0,23,0.00,CLR,,0.00,WeatherDisplay:10.37,2013-07-19 05:36:00,
2013-07-18 22:41:00,55.6,19.3,30.14,SW,225,5.8,5.8,24,0.00,CLR,,0.00,WeatherDisplay:10.37,2013-07-19 05:41:00,
2013-07-18 22:46:00,55.4,19.2,30.13,West,270,3.5,3.5,24,0.00,CLR,,0.00,WeatherDisplay:10.37,2013-07-19 05:46:00,
2013-07-18 22:51:00,55.4,20.1,30.13,SW,225,1.2,0.0,25,0.00,CLR,,0.00,WeatherDisplay:10.37,2013-07-19 05:51:00,
2013-07-18 22:56:00,55.4,21.9,30.13,North,0,3.5,3.5,27,0.00,CLR,,0.00,WeatherDisplay:10.37,2013-07-19 05:56:00,
2013-07-18 23:01:00,55.6,23.0,30.13,West,270,5.8,5.8,28,0.00,CLR,,0.00,WeatherDisplay:10.37,2013-07-19 06:01:00,
2013-07-18 23:06:00,55.8,23.1,30.13,North,0,9.2,9.2,28,0.00,CLR,,0.00,WeatherDisplay:10.37,2013-07-19 06:06:00,
2013-07-18 23:11:00,55.6,23.0,30.13,SW,225,1.2,1.2,28,0.00,CLR,,0.00,WeatherDisplay:10.37,2013-07-19 06:11:00,
2013-07-18 23:16:00,55.6,23.0,30.13,East,90,5.8,5.8,28,0.00,CLR,,0.00,WeatherDisplay:10.37,2013-07-19 06:16:00,
2013-07-18 23:21:00,55.6,23.0,30.13,NW,315,10.4,10.4,28,0.00,CLR,,0.00,WeatherDisplay:10.37,2013-07-19 06:21:00,
2013-07-18 23:26:00,55.6,23.8,30.12,SW,225,8.1,8.1,29,0.00,CLR,,0.00,WeatherDisplay:10.37,2013-07-19 06:26:00,
2013-07-18 23:31:00,55.6,24.6,30.12,NW,315,8.1,8.1,30,0.00,CLR,,0.00,WeatherDisplay:10.37,2013-07-19 06:31:00,
2013-07-18 23:36:00,55.6,24.6,30.13,NW,315,5.8,5.8,30,0.00,CLR,,0.00,WeatherDisplay:10.37,2013-07-19 06:36:00,
2013-07-18 23:41:00,55.6,25.4,30.13,NW,315,11.5,11.5,31,0.00,CLR,,0.00,WeatherDisplay:10.37,2013-07-19 06:41:00,
2013-07-18 23:46:00,55.6,25.4,30.12,SW,225,9.2,9.2,31,0.00,CLR,,0.00,WeatherDisplay:10.37,2013-07-19 06:46:00,
2013-07-18 23:51:00,55.6,26.2,30.13,NE,45,5.8,5.8,32,0.00,CLR,,0.00,WeatherDisplay:10.37,2013-07-19 06:51:00,
2013-07-18 23:56:00,55.4,26.0,30.12,West,270,11.5,11.5,32,0.00,CLR,,0.00,WeatherDisplay:10.37,2013-07-19 06:56:00,